Terminal Aerodrome Forecast
Issued by NWS

Home | Current Version | Previous Version | Text Only | Print | Product List | Glossary On
Versions: 1 2 3 4 5 6 7 8 9 10 11 12 13
000
FTUS45 KABQ 251722
TAFTCC
TAF
KTCC 251722Z 2518/2618 30008KT P6SM SKC
     FM252100 22010KT P6SM SKC
     FM260800 26007KT P6SM SKC
     FM261600 20008KT P6SM FEW250=

USA.gov is the U.S. government's official web portal to all federal, state and local government web resources and services.